Dubuque Regional Airport
KDBQ : now visible

Airfield :











YOU CAN JOIN US ON...

 
LOGIN :

Register | Disclaimer

   EN    FR    IT 

 









Legend :    VFR   Marginal VFR   IFR   Intensive IFR   Very Intensive IFR
Visi :
Ceiling :
>= 8 km
>= 3000ft
5 to 8 km
1000 to 3000 ft
1500m to 5 km
500 to 1000 ft
800 to 1500m
200 to 500 ft
< 800m
< 200 ft
Symbols :   Thunderstorms  Fog  Heavy snow  Heavy precipitations  Wind > 20 kt






- Airport Elevation : 1077 ft
- IATA code : DBQ


KDBQ - Dubuque Regional

CURRENT METAR :
  • 211608Z 00000KT 10SM BKN014 08/03 A3018 RMK AO2 T00780028

EXPIRED METARs :
  • 211553Z 00000KT 10SM SCT014 07/03 A3018 RMK AO2 SLP228 T00720028
  • 211453Z 35005KT 10SM SCT013 07/03 A3019 RMK AO2 SLP229 T00670028 53011
  • 211353Z 33003KT 10SM OVC014 06/03 A3017 RMK AO2 SLP223 T00610033

TAF KDBQ
Valid from the 21 at 15:00 until the 22 at 12:00 UTC


211500Z 2115/2212 31009KT P6SM OVC013
TEMPO 2115/2117 P6SM SCT013 OVC150
FM220100 08007KT 6SM RA BR OVC020
FM220500 10010KT 3SM RA BR OVC012
PROB30 2205/2208 2SM TSRA BR OVC008CB
KZAU FIR / North America



MET'MAP, your aeronautical weather chart ! - Copyright ORBIFLY December 2007 - Disclaimer

ORBIFLY MET'MAP TEAM :

Programming & Development : Alexandra Zaïnal
Concept & original design : Baudouin d'Aumeries
Assistance for programming : Marc-Olivier Méhu
Technical & hardware support : Manuel Goepfert

Contact : metmap@orbifly.com




SOURCES & CREDITS :

   NOAA       Earth
Advisory